Hampstead, New Hampshire
Current Conditions -  °F | °C
As of 7:21 PM on Wednesday 22 Oct 2014 (Local Time) from KLWM Reporting Station
Light Rain Light Rain  
Wind Chill: 50°   Ceiling: 1000
Heat Index: 50°   Visibility: 3mi
Dew Point: 47°   Wind: 31mph
Humidity: 89%   Direction: 40°NE
Pressure: 29.93"   Gusts: 43mph
Location:  42.87°N, 71.18°W
Report Text: KLWM 222321Z 04027G37KT 3SM -RA BR BKN010 OVC013 10/08 A2993 RMK AO2 PK WND 03037/2259 CIG 007V011 P0001 T01000083
Loading
Personal Weather Stations






























Interactive Weather Map
Tropical Storm Tracking
New forecast layout! Learn more

10-Day Weather Forecast

Advertisements
Track Severe Weather on mobile